Time;durP1;ratioP1;P1;durP2;ratioP2;P2;SDS_P1;SDS_P2;PMS_P1;PMS_P2;Temp;Humidity;BMP_temperature;BMP_pressure;BME280_temperature;BME280_humidity;BME280_pressure;Samples;Min_cycle;Max_cycle;Signal;HPM_P1;HPM_P2
2023/10/12 00:00:36;;;;;;;;;66.50;50.75;;;;;10.81;100.00;100012.41;6316240;20;3645132;-45
2023/10/12 00:03:07;;;;;;;;;62.67;48.33;;;;;10.68;100.00;100013.09;6311777;20;3626433;-45
2023/10/12 00:05:36;;;;;;;;;63.00;50.00;;;;;10.79;100.00;100008.94;6312099;20;3623189;-44
2023/10/12 00:08:10;;;;;;;;;66.67;51.33;;;;;10.78;100.00;100008.09;6281328;20;3640893;-45
2023/10/12 00:10:42;;;;;;;;;64.33;50.33;;;;;10.97;100.00;100010.56;6317420;20;3617984;-45
2023/10/12 00:13:12;;;;;;;;;64.67;48.33;;;;;11.15;100.00;100008.66;6280873;20;3651305;-45
2023/10/12 00:15:45;;;;;;;;;57.67;46.33;;;;;11.03;100.00;100002.16;6311252;20;3619063;-45
2023/10/12 00:18:17;;;;;;;;;52.33;41.67;;;;;10.58;100.00;100003.84;6312775;20;3616961;-45
2023/10/12 00:20:51;;;;;;;;;53.33;43.33;;;;;10.83;100.00;99997.09;6315352;20;3609669;-49
2023/10/12 00:23:21;;;;;;;;;64.00;50.67;;;;;10.60;100.00;100001.09;6277849;20;3623179;-46
2023/10/12 00:25:58;;;;;;;;;61.33;49.00;;;;;10.26;100.00;99993.06;6314380;20;3630549;-44
2023/10/12 00:28:38;;;;;;;;;72.67;54.00;;;;;10.39;100.00;99992.41;6281276;20;3638850;-45
2023/10/12 00:31:17;;;;;;;;;65.67;53.00;;;;;10.37;100.00;99979.06;6312613;20;3627378;-46
2023/10/12 00:33:48;;;;;;;;;64.67;50.67;;;;;10.64;100.00;99987.41;6313862;20;3623289;-45
2023/10/12 00:36:24;;;;;;;;;54.33;44.00;;;;;10.71;100.00;99983.38;6311316;20;3609777;-46
2023/10/12 00:38:56;;;;;;;;;56.00;45.33;;;;;10.80;100.00;99978.47;6309781;20;3602348;-44
2023/10/12 00:41:27;;;;;;;;;58.33;47.00;;;;;10.51;100.00;99971.13;6311537;20;2863920;-46
2023/10/12 00:44:10;;;;;;;;;60.00;47.33;;;;;10.38;100.00;99966.53;6310560;20;3639877;-44
2023/10/12 00:49:30;;;;;;;;;43.33;35.67;;;;;10.79;100.00;99971.34;6284612;20;3608613;-48
2023/10/12 00:52:08;;;;;;;;;37.67;34.33;;;;;10.27;100.00;99968.00;6280858;20;2856607;-45
2023/10/12 00:57:10;;;;;;;;;33.00;30.33;;;;;9.97;100.00;99970.50;6311447;20;3587798;-44
2023/10/12 00:59:43;;;;;;;;;40.50;34.00;;;;;10.08;100.00;99972.59;6276827;20;2849218;-44
2023/10/12 01:02:15;;;;;;;;;37.67;33.33;;;;;10.01;100.00;99968.56;6277441;20;2860858;-45
2023/10/12 01:04:48;;;;;;;;;33.00;28.67;;;;;10.32;100.00;99955.19;6310373;20;2850403;-46
2023/10/12 01:07:20;;;;;;;;;32.33;29.33;;;;;10.10;100.00;99959.97;6308848;20;3598296;-45
2023/10/12 01:09:54;;;;;;;;;38.00;33.67;;;;;10.04;100.00;99955.81;6280375;20;2865046;-44
2023/10/12 01:12:30;;;;;;;;;33.67;30.00;;;;;9.57;100.00;99953.91;6313253;20;3594021;-44
2023/10/12 01:15:08;;;;;;;;;33.67;30.33;;;;;9.43;100.00;99949.28;6277643;20;2858718;-45
2023/10/12 01:17:36;;;;;;;;;39.00;35.00;;;;;9.72;100.00;99949.53;6313278;20;3591953;-44
2023/10/12 01:20:17;;;;;;;;;37.33;33.00;;;;;9.86;100.00;99949.63;6277260;20;2851397;-44
2023/10/12 01:22:47;;;;;;;;;32.00;30.00;;;;;9.95;100.00;99950.94;6314563;20;3595096;-44
2023/10/12 01:25:21;;;;;;;;;33.00;31.33;;;;;9.78;100.00;99949.19;6276161;20;2856527;-44
2023/10/12 01:27:52;;;;;;;;;36.00;34.00;;;;;9.76;100.00;99943.03;6312049;20;3601354;-46
2023/10/12 01:30:23;;;;;;;;;34.33;31.33;;;;;9.99;100.00;99946.31;6269690;20;2860767;-46
2023/10/12 01:32:58;;;;;;;;;34.00;30.00;;;;;10.18;100.00;99946.13;6308958;20;3603401;-46
2023/10/12 01:35:51;;;;;;;;;33.67;32.00;;;;;9.97;100.00;99942.81;6278444;20;2856765;-45
2023/10/12 01:38:17;;;;;;;;;33.33;32.00;;;;;9.83;100.00;99939.09;6309987;20;3595072;-47
2023/10/12 01:43:18;;;;;;;;;35.00;31.67;;;;;9.76;100.00;99935.00;6310800;20;3605543;-45
2023/10/12 01:45:53;;;;;;;;;34.00;31.67;;;;;9.86;100.00;99940.75;6274454;20;2860864;-47
2023/10/12 01:48:22;;;;;;;;;34.67;32.00;;;;;9.46;100.00;99926.81;6308172;20;3600284;-44
2023/10/12 01:50:55;;;;;;;;;35.00;33.33;;;;;9.38;100.00;99924.53;6276840;20;2854557;-45
2023/10/12 01:53:26;;;;;;;;;35.67;32.33;;;;;9.61;100.00;99927.78;6310495;20;3575354;-44
2023/10/12 01:55:56;;;;;;;;;41.00;32.33;;;;;9.72;100.00;99928.09;6275961;20;2879516;-44
2023/10/12 01:58:28;;;;;;;;;32.67;31.33;;;;;9.26;100.00;99926.97;6310799;20;3601298;-45
2023/10/12 02:01:05;;;;;;;;;40.00;35.33;;;;;9.20;100.00;99928.16;6275807;20;2848381;-45
2023/10/12 02:03:42;;;;;;;;;35.00;31.50;;;;;8.88;100.00;99924.47;6308158;20;2859848;-44
2023/10/12 02:06:16;;;;;;;;;35.67;32.33;;;;;9.08;100.00;99924.31;6279668;20;3601326;-45
2023/10/12 02:08:46;;;;;;;;;40.00;33.50;;;;;9.25;100.00;99923.44;6278208;20;2855423;-46
2023/10/12 02:13:51;;;;;;;;;36.00;33.00;;;;;9.31;100.00;99928.47;6282840;20;2850333;-46
2023/10/12 02:16:30;;;;;;;;;41.67;35.33;;;;;9.32;100.00;99926.66;6318105;20;3593118;-48
2023/10/12 02:19:04;;;;;;;;;31.50;29.50;;;;;9.42;100.00;99927.91;6279630;20;2839203;-44
2023/10/12 02:21:38;;;;;;;;;36.33;32.00;;;;;8.98;100.00;99931.97;6282359;20;3608602;-44
2023/10/12 02:26:39;;;;;;;;;39.00;34.00;;;;;9.05;100.00;99928.97;6282166;20;2865288;-44
2023/10/12 02:34:25;;;;;;;;;37.00;33.33;;;;;9.77;100.00;99946.59;6294743;20;3613941;-44
2023/10/12 02:39:43;;;;;;;;;57.33;46.33;;;;;9.33;100.00;99945.34;6312773;20;2872295;-48
2023/10/12 02:47:30;;;;;;;;;52.33;42.00;;;;;8.62;100.00;99936.50;6282120;20;2869014;-44
2023/10/12 02:50:05;;;;;;;;;52.33;43.67;;;;;8.69;100.00;99944.13;6315477;20;2855505;-44
2023/10/12 02:52:35;;;;;;;;;56.50;46.00;;;;;8.53;100.00;99936.00;6314584;20;2857577;-44
2023/10/12 02:55:18;;;;;;;;;104.67;101.00;;;;;8.74;100.00;99938.53;6278008;20;3675381;-44
2023/10/12 02:58:35;;;;;;;;;133.25;123.00;;;;;8.64;100.00;99938.16;6280316;20;4479420;-44
2023/10/12 03:00:47;;;;;;;;;65.00;52.67;;;;;8.84;100.00;99933.59;6275450;20;2868207;-46
2023/10/12 03:03:26;;;;;;;;;58.67;47.33;;;;;9.01;100.00;99936.28;6312141;20;2856626;-44
2023/10/12 03:06:06;;;;;;;;;44.50;39.00;;;;;9.31;100.00;99933.81;6310510;20;2835690;-44
2023/10/12 03:11:25;;;;;;;;;69.67;55.33;;;;;8.92;100.00;99932.25;6280652;20;3631488;-46
2023/10/12 03:14:03;;;;;;;;;64.67;51.67;;;;;9.17;100.00;99934.56;6314567;20;3608661;-44
2023/10/12 03:16:41;;;;;;;;;43.67;36.67;;;;;9.27;100.00;99934.06;6312488;20;2863991;-44
2023/10/12 03:19:35;;;;;;;;;44.67;35.33;;;;;9.10;100.00;99934.94;6313801;20;3618986;-44
2023/10/12 03:22:18;;;;;;;;;58.67;46.33;;;;;8.83;100.00;99929.19;6313453;20;2859732;-44
2023/10/12 03:24:51;;;;;;;;;52.33;42.67;;;;;8.09;100.00;99916.72;6311226;20;2869209;-45
2023/10/12 03:27:23;;;;;;;;;59.00;47.67;;;;;8.14;100.00;99920.03;6311313;20;3635671;-45
2023/10/12 03:30:06;;;;;;;;;59.00;46.33;;;;;8.56;100.00;99917.13;6314409;20;2874314;-47
2023/10/12 03:32:35;;;;;;;;;57.50;45.50;;;;;7.99;100.00;99910.06;6313892;20;2861700;-45
2023/10/12 03:35:12;;;;;;;;;47.33;38.33;;;;;8.18;100.00;99912.72;6281194;20;3616089;-44
2023/10/12 03:37:45;;;;;;;;;45.33;37.00;;;;;8.26;100.00;99911.41;6315174;20;2861767;-44
2023/10/12 03:43:09;;;;;;;;;34.50;32.50;;;;;9.15;100.00;99923.03;6281294;20;2853409;-45
2023/10/12 03:45:48;;;;;;;;;41.00;35.50;;;;;8.52;100.00;99928.91;6279487;20;2856561;-45
2023/10/12 03:48:25;;;;;;;;;47.50;38.50;;;;;9.04;100.00;99924.56;6281928;20;2851013;-44
2023/10/12 03:53:57;;;;;;;;;48.00;40.00;;;;;9.29;100.00;99934.84;6282928;20;2848637;-44
2023/10/12 03:56:29;;;;;;;;;48.00;40.00;;;;;9.33;100.00;99928.41;6281770;20;2844034;-44
2023/10/12 03:59:06;;;;;;;;;50.00;39.00;;;;;9.07;100.00;99935.97;6283061;20;2876847;-44
2023/10/12 04:01:41;;;;;;;;;47.67;38.00;;;;;8.87;100.00;99939.66;6311642;20;2859630;-45
2023/10/12 04:04:21;;;;;;;;;58.00;47.00;;;;;8.54;100.00;99937.72;6313367;20;2877461;-45
2023/10/12 04:07:59;;;;;;;;;63.33;49.67;;;;;8.60;100.00;99938.38;6311402;20;3614845;-46
2023/10/12 04:09:43;;;;;;;;;50.00;42.50;;;;;8.41;100.00;99943.75;6311601;20;2854409;-45
2023/10/12 04:12:29;;;;;;;;;52.33;42.00;;;;;8.64;100.00;99942.63;6279276;20;2856707;-44
2023/10/12 04:15:07;;;;;;;;;56.00;46.33;;;;;8.22;100.00;99941.06;6312999;20;3611755;-46
2023/10/12 04:17:47;;;;;;;;;58.00;44.67;;;;;8.13;100.00;99932.53;6313103;20;3622178;-45
2023/10/12 04:20:21;;;;;;;;;51.67;42.00;;;;;8.11;100.00;99929.06;6315523;20;2866962;-45
2023/10/12 04:30:33;;;;;;;;;47.67;38.33;;;;;8.70;100.00;99928.94;6281764;20;2869056;-47
2023/10/12 04:33:17;;;;;;;;;51.67;40.33;;;;;8.29;100.00;99921.09;6312108;20;3627356;-50
2023/10/12 04:43:53;;;;;;;;;48.00;39.00;;;;;7.98;100.00;99902.97;6280260;20;2864328;-45
2023/10/12 04:49:29;;;;;;;;;44.33;39.00;;;;;7.57;100.00;99906.63;6280822;20;3614842;-44
2023/10/12 04:51:50;;;;;;;;;50.00;42.50;;;;;7.89;100.00;99896.25;6308735;20;2843072;-44
2023/10/12 04:54:26;;;;;;;;;45.33;38.00;;;;;8.00;100.00;99895.75;6280915;20;2877550;-46
2023/10/12 04:57:11;;;;;;;;;50.50;41.50;;;;;8.18;100.00;99902.03;6309741;20;2841929;-46
2023/10/12 05:09:50;;;;;;;;;50.67;41.33;;;;;7.44;100.00;99903.66;6312116;20;2864897;-48
2023/10/12 05:12:24;;;;;;;;;53.00;42.50;;;;;7.51;100.00;99908.75;6311809;20;2854888;-45
2023/10/12 05:14:55;;;;;;;;;45.33;39.00;;;;;7.47;100.00;99910.66;6280402;20;2862953;-44
2023/10/12 05:17:24;;;;;;;;;46.50;39.00;;;;;7.20;100.00;99918.97;6309193;20;2843001;-44
2023/10/12 05:19:54;;;;;;;;;50.00;40.33;;;;;7.13;100.00;99922.84;6279064;20;2876447;-47
2023/10/12 05:22:23;;;;;;;;;51.00;40.00;;;;;7.19;100.00;99924.41;6312029;20;2736738;-45
2023/10/12 05:24:53;;;;;;;;;46.67;39.67;;;;;7.47;100.00;99924.88;6311432;20;2871641;-45
2023/10/12 05:27:28;;;;;;;;;49.00;39.00;;;;;7.28;100.00;99925.78;6308913;20;3506620;-44
2023/10/12 05:30:05;;;;;;;;;48.00;39.00;;;;;7.92;100.00;99922.84;6309643;20;2847172;-44
2023/10/12 05:32:42;;;;;;;;;43.00;37.00;;;;;7.42;100.00;99923.34;6280383;20;2851355;-43
2023/10/12 05:35:15;;;;;;;;;41.67;37.33;;;;;7.50;100.00;99923.88;6279678;20;2858889;-45
2023/10/12 05:37:51;;;;;;;;;37.33;33.67;;;;;7.54;100.00;99929.97;6314202;20;3603380;-46
2023/10/12 05:40:21;;;;;;;;;41.00;35.00;;;;;7.79;100.00;99929.69;6278975;20;2861839;-47
2023/10/12 05:42:50;;;;;;;;;42.00;35.67;;;;;7.98;100.00;99929.72;6314674;20;3583587;-46
2023/10/12 05:45:27;;;;;;;;;38.33;34.00;;;;;8.63;100.00;99927.50;6280186;20;2855594;-46
2023/10/12 05:47:58;;;;;;;;;53.67;44.33;;;;;8.62;100.00;99926.66;6317547;20;3608578;-45
2023/10/12 05:50:30;;;;;;;;;38.33;32.00;;;;;11.57;95.27;99931.75;6318637;20;3612808;-46
2023/10/12 05:53:07;;;;;;;;;37.67;33.00;;;;;14.23;79.79;99941.78;6284604;20;3611708;-45
2023/10/12 05:55:35;;;;;;;;;37.00;32.67;;;;;14.62;74.50;99945.28;6318217;20;3610631;-47
2023/10/12 05:58:11;;;;;;;;;260.00;231.67;;;;;13.88;77.76;99939.81;6285264;20;3727291;-46
2023/10/12 06:00:47;;;;;;;;;28.33;27.67;;;;;13.96;76.59;99934.72;6284062;20;3584644;-46
2023/10/12 06:03:15;;;;;;;;;27.67;26.33;;;;;14.32;75.23;99941.09;6287320;20;3588789;-46
2023/10/12 06:05:46;;;;;;;;;39.00;33.33;;;;;15.26;71.76;99953.06;6280170;20;3621055;-46
2023/10/12 06:08:16;;;;;;;;;50.00;41.00;;;;;16.49;67.16;99949.63;6318232;20;3607533;-52
2023/10/12 06:10:45;;;;;;;;;165.50;144.00;;;;;18.82;58.01;99955.75;6280359;20;1933604;-47
2023/10/12 06:13:17;;;;;;;;;58.00;47.00;;;;;18.55;57.88;99954.53;6283860;20;3615864;-49
2023/10/12 06:15:53;;;;;;;;;47.00;39.33;;;;;18.61;57.96;99943.09;6316711;20;3585797;-46
2023/10/12 06:18:25;;;;;;;;;31.00;28.67;;;;;18.58;58.70;99959.69;6285067;20;3586907;-50
2023/10/12 06:21:06;;;;;;;;;27.67;27.00;;;;;18.15;59.43;99952.69;6288165;20;3590883;-48
2023/10/12 06:23:39;;;;;;;;;33.00;30.00;;;;;17.00;66.22;99948.16;6285093;20;2854600;-49
2023/10/12 06:26:15;;;;;;;;;28.33;28.33;;;;;17.72;61.77;99947.41;6309499;20;3594007;-47
2023/10/12 06:28:44;;;;;;;;;30.00;28.00;;;;;17.09;63.37;99941.97;6285954;20;3587801;-49
2023/10/12 06:31:14;;;;;;;;;34.00;31.33;;;;;17.84;61.30;99953.66;6284203;20;3599248;-47
2023/10/12 06:33:43;;;;;;;;;30.33;28.67;;;;;17.21;63.42;99968.06;6320185;20;3589831;-47
2023/10/12 06:36:16;;;;;;;;;24.67;23.00;;;;;13.56;80.19;99959.13;6286350;20;3583619;-46
2023/10/12 06:40:08;;;;;;;;;26.00;23.00;;;;;12.91;88.58;99968.00;6286875;20;3595157;-47
2023/10/12 06:47:28;;;;;;;;;29.33;25.00;;;;;13.64;86.50;99960.41;6285501;20;3598206;-49
2023/10/12 06:49:45;;;;;;;;;26.00;23.00;;;;;13.93;83.03;99966.44;6284483;20;3585816;-47
2023/10/12 06:52:19;;;;;;;;;26.00;21.33;;;;;14.41;81.51;99978.28;6285572;20;3587787;-48
2023/10/12 06:54:54;;;;;;;;;29.00;27.33;;;;;14.36;82.92;99974.19;6287584;20;3583575;-47
2023/10/12 07:02:29;;;;;;;;;32.00;30.67;;;;;13.83;86.25;99969.81;6284788;20;3596091;-47
2023/10/12 07:05:01;;;;;;;;;27.33;25.33;;;;;14.56;83.84;99965.53;6286436;20;3591945;-50
2023/10/12 07:07:42;;;;;;;;;62.33;40.33;;;;;14.67;83.96;99962.88;6284387;20;3666986;-45
2023/10/12 07:12:48;;;;;;;;;24.33;23.67;;;;;13.95;84.63;99961.81;6285227;20;3600399;-47
2023/10/12 07:15:27;;;;;;;;;31.00;29.67;;;;;14.33;84.97;99958.19;6285641;20;3591938;-46
2023/10/12 07:17:56;;;;;;;;;39.33;33.33;;;;;15.16;80.23;99958.31;6284797;20;2866928;-46
2023/10/12 07:23:14;;;;;;;;;31.33;26.00;;;;;15.48;79.38;99950.44;6318850;20;3583637;-49
2023/10/12 07:25:49;;;;;;;;;32.00;29.00;;;;;15.54;78.84;99960.78;6285281;20;3605479;-47
2023/10/12 07:28:32;;;;;;;;;43.00;37.00;;;;;15.49;78.94;99959.41;6286550;20;3599230;-53
2023/10/12 07:39:22;;;;;;;;;24.33;21.33;;;;;15.44;79.06;99956.19;6281431;20;3597278;-48
2023/10/12 07:44:27;;;;;;;;;22.33;22.33;;;;;15.17;78.35;99959.19;6317058;20;3573311;-45
2023/10/12 07:46:56;;;;;;;;;32.00;30.00;;;;;16.41;75.50;99952.97;6278896;20;3594032;-48
2023/10/12 07:57:57;;;;;;;;;28.33;25.33;;;;;15.94;73.79;99945.97;6285155;20;3578405;-45
2023/10/12 08:23:50;;;;;;;;;24.33;23.00;;;;;17.81;68.88;99916.78;6320543;20;3593993;-45
2023/10/12 08:32:12;;;;;;;;;21.67;21.67;;;;;17.82;68.36;99912.19;6285502;20;3580611;-45
2023/10/12 08:34:41;;;;;;;;;24.33;23.00;;;;;17.38;68.20;99909.63;6284477;20;3587785;-45
2023/10/12 08:40:05;;;;;;;;;17.33;15.33;;;;;17.17;70.29;99906.91;6285926;20;3554466;-46
2023/10/12 08:42:55;;;;;;;;;21.33;21.33;;;;;18.96;67.12;99914.56;6318699;20;3581539;-46
2023/10/12 08:45:29;;;;;;;;;23.00;23.00;;;;;18.85;66.02;99914.66;6283316;20;3600286;-44
2023/10/12 08:48:05;;;;;;;;;27.67;24.67;;;;;19.45;63.53;99917.22;6284677;20;3600713;-48
2023/10/12 08:50:58;;;;;;;;;23.00;22.00;;;;;19.20;64.99;99921.44;6286080;20;3586798;-48
2023/10/12 08:53:31;;;;;;;;;21.33;21.33;;;;;18.92;64.56;99920.41;6287207;20;3581634;-45
2023/10/12 08:56:06;;;;;;;;;25.67;24.00;;;;;19.20;63.94;99918.69;6283949;20;3596129;-45
2023/10/12 08:58:51;;;;;;;;;22.67;22.67;;;;;19.74;62.27;99919.91;6284106;20;3600250;-45
2023/10/12 09:01:23;;;;;;;;;22.00;21.33;;;;;19.90;62.01;99927.47;6281050;20;3579426;-45
2023/10/12 09:04:00;;;;;;;;;22.33;21.33;;;;;19.56;61.76;99924.38;6282030;20;3585704;-44
2023/10/12 09:06:53;;;;;;;;;21.00;20.33;;;;;20.03;61.05;99913.50;6282361;20;3581474;-44
2023/10/12 09:12:11;;;;;;;;;23.33;23.00;;;;;19.61;61.14;99908.44;6317663;20;3583596;-44
2023/10/12 09:14:43;;;;;;;;;18.00;18.00;;;;;19.86;61.92;99912.44;6280388;20;3555540;-44
2023/10/12 09:17:27;;;;;;;;;24.33;24.33;;;;;20.11;61.19;99921.78;6313922;20;3590937;-44
2023/10/12 09:20:26;;;;;;;;;18.00;18.00;;;;;20.25;60.81;99918.59;6287143;20;3564862;-45
2023/10/12 09:23:05;;;;;;;;;25.00;23.67;;;;;19.80;61.96;99911.16;6282242;20;3594143;-50
2023/10/12 09:26:11;;;;;;;;;19.33;19.33;;;;;19.73;62.12;99910.03;6284844;20;3573311;-51
2023/10/12 09:28:42;;;;;;;;;23.67;19.67;;;;;20.68;60.03;99906.16;6283205;20;3581546;-48
2023/10/12 09:31:48;;;;;;;;;20.00;19.00;;;;;20.61;59.69;99910.50;6285449;20;3574243;-45
2023/10/12 09:36:53;;;;;;;;;26.00;23.00;;;;;20.86;59.28;99906.19;6283943;20;3602293;-45
2023/10/12 09:39:25;;;;;;;;;44.00;35.33;;;;;20.73;60.41;99905.72;6281270;20;2843203;-48
2023/10/12 09:42:09;;;;;;;;;21.33;19.00;;;;;21.07;58.98;99903.13;6314638;20;3567959;-45
2023/10/12 09:44:41;;;;;;;;;19.67;18.67;;;;;21.20;57.86;99897.28;6311612;20;3565838;-45
2023/10/12 09:47:15;;;;;;;;;19.33;19.33;;;;;20.20;60.53;99892.78;6309824;20;3572133;-45
2023/10/12 09:49:54;;;;;;;;;21.67;21.67;;;;;20.99;59.02;99889.41;6283874;20;3571211;-44
2023/10/12 09:52:46;;;;;;;;;19.00;18.33;;;;;20.97;58.98;99885.97;6277215;20;3565917;-46
2023/10/12 09:55:25;;;;;;;;;20.67;18.33;;;;;20.79;58.68;99886.81;6281508;20;3557530;-48
2023/10/12 09:57:56;;;;;;;;;19.00;17.00;;;;;21.18;57.27;99872.00;6277388;20;2827755;-47
2023/10/12 10:00:28;;;;;;;;;24.33;22.33;;;;;21.70;56.41;99867.44;6284645;20;3596123;-44
2023/10/12 10:03:03;;;;;;;;;171.00;148.40;;;;;22.02;56.82;99862.31;6234837;20;4489876;-45
2023/10/12 10:06:10;;;;;;;;;44.00;35.33;;;;;22.26;54.74;99862.44;6279910;20;3589987;-47
2023/10/12 10:08:47;;;;;;;;;269.78;234.67;;;;;22.47;54.90;99856.53;6272752;20;3729572;-49
2023/10/12 10:11:26;;;;;;;;;118.56;96.78;;;;;22.49;54.71;99859.09;6270542;20;3686881;-47
2023/10/12 10:13:56;;;;;;;;;21.33;17.67;;;;;21.64;56.26;99862.63;6294295;20;3569027;-46
2023/10/12 10:16:37;;;;;;;;;45.33;35.67;;;;;21.82;56.68;99845.28;6316597;20;3605471;-46
2023/10/12 10:19:16;;;;;;;;;16.50;16.50;;;;;22.48;55.65;99850.00;6278123;20;2829431;-46
2023/10/12 10:22:04;;;;;;;;;21.33;19.33;;;;;22.84;54.10;99840.69;6286267;20;3575265;-46
2023/10/12 10:24:45;;;;;;;;;23.67;17.00;;;;;22.98;53.74;99834.53;6280536;20;3576395;-47
2023/10/12 10:27:17;;;;;;;;;14.00;14.00;;;;;23.27;53.80;99834.00;6273587;20;2806610;-45
2023/10/12 10:29:54;;;;;;;;;17.00;17.00;;;;;23.32;52.37;99825.28;6281108;20;3569090;-46
2023/10/12 10:32:39;;;;;;;;;17.33;16.00;;;;;23.15;53.24;99824.47;6287634;20;3556624;-46
2023/10/12 10:35:13;;;;;;;;;16.00;16.00;;;;;23.00;53.85;99811.44;6287677;20;3562755;-45
2023/10/12 10:37:52;;;;;;;;;18.67;18.67;;;;;23.18;53.94;99814.00;6285291;20;3573288;-48
2023/10/12 10:40:48;;;;;;;;;16.67;16.33;;;;;23.64;52.96;99808.78;6284341;20;3559640;-48
2023/10/12 10:43:16;;;;;;;;;14.67;13.67;;;;;23.78;52.90;99807.22;6287996;20;3544102;-47
2023/10/12 10:45:56;;;;;;;;;18.00;16.67;;;;;24.08;52.57;99804.69;6305162;20;3564235;-46
2023/10/12 10:48:27;;;;;;;;;16.00;16.00;;;;;23.67;53.59;99815.78;6289036;20;3564862;-45
2023/10/12 10:51:27;;;;;;;;;14.33;13.00;;;;;24.27;51.87;99820.69;6285491;20;3550269;-47
2023/10/12 10:53:56;;;;;;;;;18.33;15.00;;;;;24.24;52.31;99812.84;6284871;20;3552361;-51
2023/10/12 10:56:36;;;;;;;;;18.00;15.00;;;;;23.56;53.16;99821.63;6315126;20;2825314;-47
2023/10/12 10:59:12;;;;;;;;;20.33;15.00;;;;;23.99;52.86;99814.84;6282552;20;2483794;-50
2023/10/12 11:01:46;;;;;;;;;13.67;11.33;;;;;24.47;52.13;99814.81;6321479;20;3512779;-47
2023/10/12 11:07:03;;;;;;;;;14.67;13.33;;;;;24.37;52.71;99809.50;6318614;20;3536705;-48
2023/10/12 11:12:30;;;;;;;;;17.00;17.00;;;;;24.42;52.76;99804.31;6320858;20;3557590;-48
2023/10/12 11:15:00;;;;;;;;;10.00;10.00;;;;;24.64;52.38;99799.06;6282360;20;3494006;-47
2023/10/12 11:18:35;;;;;;;;;24.67;17.33;;;;;24.31;52.36;99805.59;6315965;20;3597196;-46
2023/10/12 11:20:40;;;;;;;;;19.00;15.00;;;;;24.40;52.59;99797.31;6315327;20;3554465;-49
2023/10/12 11:23:14;;;;;;;;;15.50;13.50;;;;;24.49;52.14;99807.25;6315617;20;2821134;-47
2023/10/12 11:25:43;;;;;;;;;16.33;15.00;;;;;24.22;52.44;99798.44;6289565;20;3547180;-47
2023/10/12 11:28:23;;;;;;;;;15.50;14.00;;;;;24.20;53.04;99797.78;6314058;20;2815065;-48
2023/10/12 11:30:52;;;;;;;;;16.00;15.00;;;;;25.07;51.63;99791.19;6285960;20;2819179;-49
2023/10/12 11:33:29;;;;;;;;;13.67;13.67;;;;;24.65;52.00;99792.56;6281382;20;3546541;-49
2023/10/12 11:36:03;;;;;;;;;14.00;14.00;;;;;24.20;52.19;99792.28;6286388;20;2487783;-49
2023/10/12 11:38:32;;;;;;;;;19.00;16.00;;;;;24.26;53.09;99796.19;6316161;20;3577530;-47
2023/10/12 11:41:16;;;;;;;;;15.00;15.00;;;;;24.56;52.46;99789.00;6283978;20;2814900;-47
2023/10/12 11:43:57;;;;;;;;;15.00;12.50;;;;;24.29;53.81;99780.22;6286820;20;2792972;-47
2023/10/12 11:46:26;;;;;;;;;15.67;15.67;;;;;24.95;52.47;99786.09;6283814;20;3558663;-46
2023/10/12 11:49:04;;;;;;;;;17.00;15.00;;;;;24.12;53.12;99778.63;6279818;20;2710711;-46
2023/10/12 11:51:40;;;;;;;;;16.50;14.00;;;;;24.00;53.59;99766.34;6316632;20;2808758;-47
2023/10/12 11:54:19;;;;;;;;;15.67;12.00;;;;;24.40;53.11;99764.38;6282542;20;3535685;-50
2023/10/12 11:56:51;;;;;;;;;16.00;15.00;;;;;24.20;53.31;99770.34;6285933;20;3543972;-46
2023/10/12 11:59:26;;;;;;;;;15.67;15.00;;;;;24.14;53.84;99764.72;6317104;20;3546107;-48
2023/10/12 12:02:03;;;;;;;;;18.00;14.67;;;;;24.69;52.49;99764.53;6315133;20;2820184;-47
2023/10/12 12:04:39;;;;;;;;;16.50;15.50;;;;;24.56;52.47;99768.94;6313875;20;2821162;-49
2023/10/12 12:07:23;;;;;;;;;13.00;11.00;;;;;24.60;52.25;99771.13;6282814;20;3489950;-46
2023/10/12 12:10:00;;;;;;;;;15.00;15.00;;;;;24.68;52.04;99757.34;6315362;20;3547272;-47
2023/10/12 12:12:29;;;;;;;;;12.00;10.00;;;;;24.44;52.69;99757.50;6282573;20;2796175;-46
2023/10/12 12:14:57;;;;;;;;;19.33;16.00;;;;;24.77;52.72;99760.00;6317619;20;3566909;-48
2023/10/12 12:17:26;;;;;;;;;15.00;14.00;;;;;24.73;52.23;99754.03;6281273;20;3546117;-47
2023/10/12 12:19:55;;;;;;;;;17.00;13.00;;;;;24.80;51.64;99751.41;6314161;20;2819036;-51
2023/10/12 12:22:25;;;;;;;;;15.00;15.00;;;;;24.64;51.53;99752.38;6282966;20;2815011;-47
2023/10/12 12:24:57;;;;;;;;;19.00;15.33;;;;;24.38;52.49;99745.38;6286440;20;3563833;-51
2023/10/12 12:27:38;;;;;;;;;17.00;16.67;;;;;24.61;51.78;99753.59;6281021;20;3566992;-47
2023/10/12 12:30:22;;;;;;;;;19.00;17.33;;;;;24.53;52.57;99746.28;6282123;20;2832686;-48
2023/10/12 12:33:15;;;;;;;;;19.00;18.00;;;;;24.18;53.39;99750.44;6316268;20;3581522;-50
2023/10/12 12:35:54;;;;;;;;;15.00;15.00;;;;;24.78;52.04;99745.22;6285656;20;3548309;-47
2023/10/12 12:40:56;;;;;;;;;18.00;18.00;;;;;24.66;52.04;99737.44;6317190;20;3589877;-46
2023/10/12 12:43:25;;;;;;;;;23.67;18.00;;;;;24.54;51.91;99738.94;6284078;20;3579585;-46
2023/10/12 12:45:53;;;;;;;;;18.00;16.00;;;;;25.02;51.10;99735.94;6283108;20;3558641;-47
2023/10/12 12:48:22;;;;;;;;;16.67;13.00;;;;;24.69;51.93;99734.31;6282379;20;2487792;-48
2023/10/12 12:50:50;;;;;;;;;16.67;15.33;;;;;24.44;52.27;99732.78;6312980;20;3551417;-48
2023/10/12 12:53:19;;;;;;;;;15.67;15.67;;;;;24.68;52.26;99729.88;6280356;20;3554618;-50
2023/10/12 12:55:48;;;;;;;;;16.67;16.00;;;;;24.31;52.27;99723.25;6316061;20;3552419;-46
2023/10/12 12:58:18;;;;;;;;;18.33;16.00;;;;;24.65;52.80;99724.75;6281350;20;3558689;-52
2023/10/12 13:00:47;;;;;;;;;19.67;15.00;;;;;24.43;52.47;99723.69;6279059;20;2835691;-48
2023/10/12 13:03:16;;;;;;;;;19.00;16.00;;;;;24.76;51.63;99715.22;6313841;20;2483687;-47
2023/10/12 13:05:46;;;;;;;;;16.00;14.33;;;;;24.71;51.68;99704.78;6312624;20;3547191;-47
2023/10/12 13:08:16;;;;;;;;;19.67;18.33;;;;;24.39;52.51;99703.16;6317866;20;3568011;-51
2023/10/12 13:10:45;;;;;;;;;14.00;14.00;;;;;24.72;52.45;99701.03;6281089;20;2483725;-46
2023/10/12 13:13:14;;;;;;;;;20.00;17.67;;;;;24.82;52.32;99697.13;6311953;20;3568140;-47
2023/10/12 13:15:47;;;;;;;;;20.00;18.50;;;;;24.81;51.58;99692.69;6280812;20;2837813;-49
2023/10/12 13:18:16;;;;;;;;;17.67;17.67;;;;;24.64;51.80;99690.09;6286546;20;3565683;-52
2023/10/12 13:20:46;;;;;;;;;22.67;19.33;;;;;24.38;52.45;99692.34;6281217;20;3576317;-49
2023/10/12 13:23:18;;;;;;;;;18.67;18.67;;;;;24.66;52.09;99693.50;6285736;20;3568102;-49
2023/10/12 13:25:47;;;;;;;;;17.33;15.33;;;;;24.47;52.44;99702.25;6285452;20;3558581;-47
2023/10/12 13:28:16;;;;;;;;;21.33;18.00;;;;;24.74;52.07;99687.94;6279862;20;2839422;-47
2023/10/12 13:30:46;;;;;;;;;23.33;20.33;;;;;24.82;52.40;99691.66;6312085;20;3583764;-50
2023/10/12 13:33:16;;;;;;;;;16.33;16.33;;;;;24.47;52.42;99685.78;6314216;20;3563892;-48
2023/10/12 13:35:46;;;;;;;;;15.67;15.67;;;;;24.63;52.33;99682.91;6282525;20;3551715;-48
2023/10/12 13:38:16;;;;;;;;;20.00;18.00;;;;;24.51;51.99;99684.38;6314917;20;3561735;-47
2023/10/12 13:40:51;;;;;;;;;18.33;16.67;;;;;24.65;51.97;99680.81;6286841;20;3560694;-47
2023/10/12 13:43:26;;;;;;;;;17.33;17.33;;;;;24.62;52.60;99685.81;6279930;20;3564869;-47
2023/10/12 13:45:55;;;;;;;;;21.00;18.67;;;;;24.66;52.85;99687.16;6279973;20;3570076;-48
2023/10/12 13:48:27;;;;;;;;;17.00;14.67;;;;;24.72;52.23;99687.28;6280641;20;3558672;-47
2023/10/12 13:51:04;;;;;;;;;18.33;17.00;;;;;24.56;51.80;99681.06;6313705;20;3573309;-47
2023/10/12 13:53:36;;;;;;;;;16.33;16.33;;;;;24.49;52.50;99672.75;6286121;20;3556506;-50
2023/10/12 13:56:09;;;;;;;;;19.00;19.00;;;;;24.57;52.37;99682.81;6283313;20;3568002;-47
2023/10/12 13:58:46;;;;;;;;;20.33;19.00;;;;;24.56;53.41;99670.94;6285510;20;3572167;-50